Time;durP1;ratioP1;P1;durP2;ratioP2;P2;SDS_P1;SDS_P2;PMS_P1;PMS_P2;Temp;Humidity;BMP_temperature;BMP_pressure;BME280_temperature;BME280_humidity;BME280_pressure;Samples;Min_cycle;Max_cycle;Signal;HPM_P1;HPM_P2
2022/07/17 00:01:04;;;;;;;3.43;2.13;;;;;;;;;;5017569;28;20273;-76
2022/07/17 00:03:30;;;;;;;3.43;2.40;;;;;;;;;;4999699;28;20187;-76
2022/07/17 00:05:57;;;;;;;3.60;2.40;;;;;;;;;;4979974;28;20197;-76
2022/07/17 00:08:23;;;;;;;3.10;2.50;;;;;;;;;;5001095;28;20270;-76
2022/07/17 00:10:49;;;;;;;2.97;2.53;;;;;;;;;;4976132;28;20682;-76
2022/07/17 00:13:15;;;;;;;4.10;2.53;;;;;;;;;;5008040;28;20199;-76
2022/07/17 00:15:41;;;;;;;4.63;2.57;;;;;;;;;;5017252;28;20201;-76
2022/07/17 00:18:08;;;;;;;4.10;2.77;;;;;;;;;;4993642;28;20722;-76
2022/07/17 00:20:34;;;;;;;6.80;2.63;;;;;;;;;;5013204;28;20233;-76
2022/07/17 00:23:00;;;;;;;3.83;2.57;;;;;;;;;;4997231;28;20183;-76
2022/07/17 00:25:26;;;;;;;4.77;2.53;;;;;;;;;;5013912;28;20205;-76
2022/07/17 00:27:53;;;;;;;2.60;2.20;;;;;;;;;;5004482;28;20179;-76
2022/07/17 00:30:19;;;;;;;3.07;2.40;;;;;;;;;;5014854;28;20179;-76
2022/07/17 00:32:45;;;;;;;2.47;2.20;;;;;;;;;;5018709;28;20290;-76
2022/07/17 00:35:12;;;;;;;4.70;2.50;;;;;;;;;;5024882;28;20182;-76
2022/07/17 00:37:39;;;;;;;3.47;2.20;;;;;;;;;;5007829;28;20183;-76
2022/07/17 00:40:06;;;;;;;3.53;2.00;;;;;;;;;;5017711;28;20237;-76
2022/07/17 00:42:32;;;;;;;5.23;2.37;;;;;;;;;;5019653;28;20278;-76
2022/07/17 00:44:59;;;;;;;3.30;2.53;;;;;;;;;;5019143;28;20203;-76
2022/07/17 00:47:25;;;;;;;2.30;2.10;;;;;;;;;;5016848;28;20179;-76
2022/07/17 00:49:51;;;;;;;3.93;2.40;;;;;;;;;;5015849;28;20197;-76
2022/07/17 00:52:18;;;;;;;3.93;2.53;;;;;;;;;;5015571;28;20238;-76
2022/07/17 00:54:45;;;;;;;3.87;2.27;;;;;;;;;;5019130;28;20222;-76
2022/07/17 00:57:12;;;;;;;4.93;2.43;;;;;;;;;;5017983;28;20187;-76
2022/07/17 00:59:39;;;;;;;3.10;2.40;;;;;;;;;;5016094;28;20187;-76
2022/07/17 01:02:07;;;;;;;4.27;2.30;;;;;;;;;;4996838;28;20704;-76
2022/07/17 01:04:33;;;;;;;3.70;2.20;;;;;;;;;;5017334;28;20601;-76
2022/07/17 01:07:00;;;;;;;3.20;2.33;;;;;;;;;;5015828;28;20915;-76
2022/07/17 01:09:27;;;;;;;4.63;2.60;;;;;;;;;;5015401;28;20189;-76
2022/07/17 01:11:54;;;;;;;3.63;2.47;;;;;;;;;;5013829;28;20579;-76
2022/07/17 01:14:20;;;;;;;4.17;2.30;;;;;;;;;;5018120;28;20179;-76
2022/07/17 01:16:46;;;;;;;2.43;2.17;;;;;;;;;;5019909;28;20598;-76
2022/07/17 01:19:12;;;;;;;3.20;2.30;;;;;;;;;;5017068;28;20187;-76
2022/07/17 01:21:43;;;;;;;4.33;2.40;;;;;;;;;;5018870;28;20203;-76
2022/07/17 01:24:09;;;;;;;2.53;2.00;;;;;;;;;;5016304;28;20791;-76
2022/07/17 01:26:35;;;;;;;2.47;1.90;;;;;;;;;;5000841;28;20180;-76
2022/07/17 01:29:02;;;;;;;4.53;2.20;;;;;;;;;;4984131;28;20202;-76
2022/07/17 01:31:28;;;;;;;2.97;2.10;;;;;;;;;;5018706;28;20709;-76
2022/07/17 01:33:55;;;;;;;2.77;1.90;;;;;;;;;;5019714;28;20257;-76
2022/07/17 01:36:24;;;;;;;2.67;1.70;;;;;;;;;;5017607;28;20681;-76
2022/07/17 01:38:51;;;;;;;2.33;1.70;;;;;;;;;;5020608;28;20584;-76
2022/07/17 01:41:17;;;;;;;2.57;1.77;;;;;;;;;;5018954;28;20199;-76
2022/07/17 01:43:43;;;;;;;3.67;2.00;;;;;;;;;;4999115;28;20187;-76
2022/07/17 01:46:10;;;;;;;2.90;1.70;;;;;;;;;;5014751;28;20179;-76
2022/07/17 01:48:36;;;;;;;4.20;1.70;;;;;;;;;;4997686;28;20191;-76
2022/07/17 01:51:03;;;;;;;2.83;1.60;;;;;;;;;;5016466;28;20226;-76
2022/07/17 01:53:29;;;;;;;2.33;1.60;;;;;;;;;;5012925;28;20203;-76
2022/07/17 01:55:55;;;;;;;2.93;1.50;;;;;;;;;;5001792;28;20176;-76
2022/07/17 01:58:22;;;;;;;2.00;1.40;;;;;;;;;;5015610;28;20187;-76
2022/07/17 02:00:48;;;;;;;1.97;1.50;;;;;;;;;;5001057;28;20202;-76
2022/07/17 02:03:14;;;;;;;2.30;1.50;;;;;;;;;;5020678;28;20192;-76
2022/07/17 02:05:40;;;;;;;3.80;1.70;;;;;;;;;;5020829;28;20183;-76
2022/07/17 02:08:06;;;;;;;2.30;1.43;;;;;;;;;;5014389;28;20213;-76
2022/07/17 02:10:33;;;;;;;4.50;1.80;;;;;;;;;;5017000;28;20214;-76
2022/07/17 02:12:59;;;;;;;2.73;1.47;;;;;;;;;;5014135;28;20215;-76
2022/07/17 02:15:25;;;;;;;2.70;1.67;;;;;;;;;;5005091;28;20184;-76
2022/07/17 02:17:51;;;;;;;1.90;1.53;;;;;;;;;;5003803;28;20199;-76
2022/07/17 02:20:17;;;;;;;4.13;1.80;;;;;;;;;;5019878;28;20211;-76
2022/07/17 02:22:44;;;;;;;2.73;1.67;;;;;;;;;;4982648;28;20241;-76
2022/07/17 02:25:11;;;;;;;2.93;1.60;;;;;;;;;;5017337;28;20205;-76
2022/07/17 02:27:38;;;;;;;2.20;1.53;;;;;;;;;;4999350;28;20180;-76
2022/07/17 02:30:05;;;;;;;1.70;1.40;;;;;;;;;;5016251;28;20198;-76
2022/07/17 02:32:31;;;;;;;2.93;1.60;;;;;;;;;;5017613;28;20210;-76
2022/07/17 02:34:58;;;;;;;3.73;1.63;;;;;;;;;;5000155;28;20183;-76
2022/07/17 02:37:24;;;;;;;2.30;1.40;;;;;;;;;;5019893;28;20246;-76
2022/07/17 02:39:53;;;;;;;1.53;1.40;;;;;;;;;;5003197;28;20179;-77
2022/07/17 02:42:23;;;;;;;2.13;1.40;;;;;;;;;;5016369;28;20576;-76
2022/07/17 02:44:49;;;;;;;3.57;1.60;;;;;;;;;;5017958;28;20191;-76
2022/07/17 02:47:23;;;;;;;2.00;1.60;;;;;;;;;;5015879;28;20187;-76
2022/07/17 02:49:49;;;;;;;2.83;1.60;;;;;;;;;;4984590;28;22373;-76
2022/07/17 02:52:16;;;;;;;3.10;1.50;;;;;;;;;;5012082;28;20218;-76
2022/07/17 02:54:42;;;;;;;2.13;1.37;;;;;;;;;;5010814;28;20190;-76
2022/07/17 02:57:08;;;;;;;3.50;1.50;;;;;;;;;;5024642;28;20266;-76
2022/07/17 02:59:34;;;;;;;3.13;1.90;;;;;;;;;;4986711;28;20291;-76
2022/07/17 03:02:01;;;;;;;2.00;1.50;;;;;;;;;;5001560;28;20211;-76
2022/07/17 03:04:27;;;;;;;2.50;1.63;;;;;;;;;;5010363;28;20183;-76
2022/07/17 03:06:53;;;;;;;2.93;1.60;;;;;;;;;;5004271;28;20594;-76
2022/07/17 03:09:19;;;;;;;3.90;1.57;;;;;;;;;;5015145;28;20715;-76
2022/07/17 03:11:45;;;;;;;3.13;1.83;;;;;;;;;;5013936;28;20206;-76
2022/07/17 03:14:11;;;;;;;2.77;1.60;;;;;;;;;;5012201;28;20223;-76
2022/07/17 03:16:37;;;;;;;2.30;1.40;;;;;;;;;;4996567;28;20181;-76
2022/07/17 03:19:04;;;;;;;2.30;1.63;;;;;;;;;;4988160;28;20258;-76
2022/07/17 03:21:30;;;;;;;3.33;1.67;;;;;;;;;;5015788;28;20232;-76
2022/07/17 03:23:56;;;;;;;4.30;1.53;;;;;;;;;;5002027;28;20175;-76
2022/07/17 03:26:22;;;;;;;2.50;1.53;;;;;;;;;;4999225;28;20256;-76
2022/07/17 03:28:48;;;;;;;1.50;1.30;;;;;;;;;;4992242;28;20281;-76
2022/07/17 03:31:15;;;;;;;3.47;1.80;;;;;;;;;;5015170;28;20584;-76
2022/07/17 03:33:41;;;;;;;3.00;1.70;;;;;;;;;;5016409;28;20373;-76
2022/07/17 03:36:07;;;;;;;2.63;1.50;;;;;;;;;;5019475;28;20206;-76
2022/07/17 03:38:33;;;;;;;2.47;1.60;;;;;;;;;;5021880;28;20202;-76
2022/07/17 03:40:59;;;;;;;3.57;1.60;;;;;;;;;;5016153;28;20198;-76
2022/07/17 03:43:26;;;;;;;2.30;1.40;;;;;;;;;;5018955;28;20191;-76
2022/07/17 03:45:52;;;;;;;2.77;1.60;;;;;;;;;;5017077;28;20249;-76
2022/07/17 03:48:19;;;;;;;2.37;1.60;;;;;;;;;;5001755;28;20247;-76
2022/07/17 03:50:45;;;;;;;2.00;1.40;;;;;;;;;;5016508;28;20225;-76
2022/07/17 03:53:11;;;;;;;2.17;1.50;;;;;;;;;;5011739;28;20215;-76
2022/07/17 03:55:37;;;;;;;4.23;1.50;;;;;;;;;;5015549;28;20229;-76
2022/07/17 03:58:04;;;;;;;2.37;1.60;;;;;;;;;;4982830;28;20256;-76
2022/07/17 04:00:30;;;;;;;6.30;1.67;;;;;;;;;;5015547;28;20610;-76
2022/07/17 04:02:56;;;;;;;2.37;1.50;;;;;;;;;;4979706;28;20182;-76
2022/07/17 04:05:22;;;;;;;2.40;1.40;;;;;;;;;;5013264;28;20213;-76
2022/07/17 04:07:48;;;;;;;2.27;1.60;;;;;;;;;;5017177;28;20194;-76
2022/07/17 04:10:15;;;;;;;1.93;1.40;;;;;;;;;;4997288;28;20183;-76
2022/07/17 04:12:41;;;;;;;2.63;1.60;;;;;;;;;;4974234;28;20698;-76
2022/07/17 04:15:08;;;;;;;3.77;1.93;;;;;;;;;;5015889;28;20716;-76
2022/07/17 04:17:35;;;;;;;3.67;1.73;;;;;;;;;;5018421;28;20182;-76
2022/07/17 04:20:01;;;;;;;2.63;1.77;;;;;;;;;;4998612;28;20183;-76
2022/07/17 04:22:27;;;;;;;2.93;2.00;;;;;;;;;;5017562;28;20249;-76
2022/07/17 04:24:53;;;;;;;3.30;1.80;;;;;;;;;;5015603;28;20194;-76
2022/07/17 04:27:19;;;;;;;2.40;1.70;;;;;;;;;;5018610;28;20183;-76
2022/07/17 04:29:46;;;;;;;3.73;2.00;;;;;;;;;;5013895;28;20267;-76
2022/07/17 04:32:12;;;;;;;2.73;2.00;;;;;;;;;;5018408;28;20218;-76
2022/07/17 04:34:38;;;;;;;2.30;2.03;;;;;;;;;;5018198;28;20195;-76
2022/07/17 04:37:04;;;;;;;2.70;2.20;;;;;;;;;;5001843;28;20190;-76
2022/07/17 04:39:31;;;;;;;3.27;1.93;;;;;;;;;;5016700;28;20187;-76
2022/07/17 04:41:57;;;;;;;5.37;1.90;;;;;;;;;;4996954;28;20226;-76
2022/07/17 04:44:23;;;;;;;3.70;2.03;;;;;;;;;;4996212;28;20202;-76
2022/07/17 04:46:49;;;;;;;3.47;2.00;;;;;;;;;;4996201;28;20688;-77
2022/07/17 04:49:15;;;;;;;3.53;2.20;;;;;;;;;;4996026;28;20564;-76
2022/07/17 04:51:42;;;;;;;3.03;2.10;;;;;;;;;;4995506;28;20316;-76
2022/07/17 04:54:08;;;;;;;2.60;1.70;;;;;;;;;;4991187;28;20690;-76
2022/07/17 04:56:34;;;;;;;5.20;2.13;;;;;;;;;;4972056;28;20184;-76
2022/07/17 04:59:00;;;;;;;3.57;1.90;;;;;;;;;;5011250;28;20179;-76
2022/07/17 05:01:26;;;;;;;3.07;1.80;;;;;;;;;;4997566;28;20235;-76
2022/07/17 05:03:53;;;;;;;4.27;2.03;;;;;;;;;;4991957;28;20725;-77
2022/07/17 05:06:19;;;;;;;5.00;2.23;;;;;;;;;;5011820;28;20599;-81
2022/07/17 05:08:45;;;;;;;2.40;2.00;;;;;;;;;;5013828;28;20290;-79
2022/07/17 05:11:11;;;;;;;4.97;2.30;;;;;;;;;;5020238;28;20246;-79
2022/07/17 05:13:37;;;;;;;3.07;2.10;;;;;;;;;;5015560;28;20206;-78
2022/07/17 05:16:04;;;;;;;2.97;1.90;;;;;;;;;;5015958;28;20545;-78
2022/07/17 05:18:30;;;;;;;4.57;2.10;;;;;;;;;;4996819;28;20199;-79
2022/07/17 05:20:56;;;;;;;3.27;2.00;;;;;;;;;;5013132;28;20229;-79
2022/07/17 05:23:22;;;;;;;4.07;1.90;;;;;;;;;;5013360;28;20190;-79
2022/07/17 05:25:49;;;;;;;5.07;2.10;;;;;;;;;;5015273;28;20225;-79
2022/07/17 05:28:16;;;;;;;3.47;2.03;;;;;;;;;;5011662;28;20659;-78
2022/07/17 05:30:42;;;;;;;3.07;2.17;;;;;;;;;;5012534;28;20527;-79
2022/07/17 05:33:08;;;;;;;4.47;2.17;;;;;;;;;;5012006;28;20215;-79
2022/07/17 05:35:34;;;;;;;4.17;1.97;;;;;;;;;;5012474;28;20187;-79
2022/07/17 05:38:00;;;;;;;3.67;2.07;;;;;;;;;;5014444;28;20193;-78
2022/07/17 05:40:26;;;;;;;3.73;1.80;;;;;;;;;;5015507;28;20306;-78
2022/07/17 05:42:52;;;;;;;3.03;1.70;;;;;;;;;;5014808;28;20667;-78
2022/07/17 05:45:19;;;;;;;2.87;1.93;;;;;;;;;;4998242;28;20178;-79
2022/07/17 05:47:45;;;;;;;3.27;2.00;;;;;;;;;;5013389;28;20279;-79
2022/07/17 05:50:11;;;;;;;4.77;2.20;;;;;;;;;;5011782;28;20617;-79
2022/07/17 05:52:37;;;;;;;3.13;2.20;;;;;;;;;;4994514;28;20211;-79
2022/07/17 05:55:04;;;;;;;4.43;2.23;;;;;;;;;;5014138;28;20183;-79
2022/07/17 05:57:30;;;;;;;4.73;2.30;;;;;;;;;;5007647;28;20183;-79
2022/07/17 05:59:56;;;;;;;3.13;2.10;;;;;;;;;;4992835;28;20246;-79
2022/07/17 06:02:22;;;;;;;5.17;2.33;;;;;;;;;;5009874;28;20215;-79
2022/07/17 06:04:49;;;;;;;3.67;2.20;;;;;;;;;;5008066;28;20179;-78
2022/07/17 06:07:15;;;;;;;3.97;1.97;;;;;;;;;;4994836;28;20589;-79
2022/07/17 06:09:41;;;;;;;3.27;2.27;;;;;;;;;;4994705;28;20202;-79
2022/07/17 06:12:07;;;;;;;4.50;1.83;;;;;;;;;;5011759;28;20920;-79
2022/07/17 06:14:33;;;;;;;4.17;2.00;;;;;;;;;;4994070;28;20193;-78
2022/07/17 06:17:00;;;;;;;3.50;2.00;;;;;;;;;;5010259;28;20187;-78
2022/07/17 06:19:26;;;;;;;5.40;1.93;;;;;;;;;;5010975;28;20225;-78
2022/07/17 06:21:52;;;;;;;4.47;1.60;;;;;;;;;;5011308;28;20194;-78
2022/07/17 06:24:18;;;;;;;4.80;2.00;;;;;;;;;;5012362;28;20275;-78
2022/07/17 06:26:44;;;;;;;6.00;1.90;;;;;;;;;;5012131;28;20198;-79
2022/07/17 06:29:10;;;;;;;2.60;1.70;;;;;;;;;;5010693;28;20590;-79
2022/07/17 06:31:37;;;;;;;4.40;1.67;;;;;;;;;;5009788;28;20214;-79
2022/07/17 06:34:03;;;;;;;3.07;1.80;;;;;;;;;;5008674;28;20354;-80
2022/07/17 06:36:29;;;;;;;4.43;1.80;;;;;;;;;;5009415;28;20673;-79
2022/07/17 06:38:55;;;;;;;4.40;1.77;;;;;;;;;;5011486;28;20616;-79
2022/07/17 06:41:21;;;;;;;3.33;1.80;;;;;;;;;;5013625;28;20218;-79
2022/07/17 06:43:48;;;;;;;2.20;1.47;;;;;;;;;;5012273;28;20191;-79
2022/07/17 06:46:14;;;;;;;2.07;1.50;;;;;;;;;;5011917;28;20673;-79
2022/07/17 06:48:40;;;;;;;3.70;1.83;;;;;;;;;;4979098;28;20211;-78
2022/07/17 06:51:06;;;;;;;3.10;1.73;;;;;;;;;;5012134;28;20219;-78
2022/07/17 06:53:32;;;;;;;6.30;1.80;;;;;;;;;;5012062;28;20211;-77
2022/07/17 06:55:58;;;;;;;2.90;1.80;;;;;;;;;;5011156;28;20627;-77
2022/07/17 06:58:25;;;;;;;4.07;1.70;;;;;;;;;;5006721;28;20575;-76
2022/07/17 07:00:51;;;;;;;5.87;1.70;;;;;;;;;;5012963;28;20253;-75
2022/07/17 07:03:17;;;;;;;4.73;1.63;;;;;;;;;;5011332;28;20211;-75
2022/07/17 07:05:43;;;;;;;4.07;1.77;;;;;;;;;;5011009;28;20191;-78
2022/07/17 07:08:09;;;;;;;4.90;1.70;;;;;;;;;;5007681;28;20179;-75
2022/07/17 07:10:36;;;;;;;4.07;1.87;;;;;;;;;;5008664;28;20191;-74
2022/07/17 07:13:02;;;;;;;3.00;1.73;;;;;;;;;;5009732;28;20239;-80
2022/07/17 07:15:28;;;;;;;4.30;1.80;;;;;;;;;;4994144;28;20238;-79
2022/07/17 07:17:54;;;;;;;3.07;1.57;;;;;;;;;;5015869;28;20663;-79
2022/07/17 07:20:20;;;;;;;3.43;1.60;;;;;;;;;;5013204;28;20214;-79
2022/07/17 07:22:47;;;;;;;2.93;1.43;;;;;;;;;;5010824;28;20365;-79
2022/07/17 07:25:13;;;;;;;2.97;1.60;;;;;;;;;;5009888;28;20194;-79
2022/07/17 07:27:39;;;;;;;4.57;1.50;;;;;;;;;;4990813;28;20217;-79
2022/07/17 07:30:09;;;;;;;2.90;1.40;;;;;;;;;;4993666;28;20242;-79
2022/07/17 07:32:36;;;;;;;2.20;1.50;;;;;;;;;;5007084;28;20269;-79
2022/07/17 07:35:03;;;;;;;4.00;1.60;;;;;;;;;;5008083;28;20226;-78
2022/07/17 07:37:29;;;;;;;1.73;1.40;;;;;;;;;;5012840;28;20704;-79
2022/07/17 07:39:55;;;;;;;4.47;1.50;;;;;;;;;;5011851;28;20179;-79
2022/07/17 07:42:27;;;;;;;3.60;1.80;;;;;;;;;;4979503;28;20598;-78
2022/07/17 07:44:53;;;;;;;2.33;1.80;;;;;;;;;;5009426;28;20210;-79
2022/07/17 07:47:19;;;;;;;2.63;1.73;;;;;;;;;;5005587;28;20233;-79
2022/07/17 07:49:46;;;;;;;3.90;1.73;;;;;;;;;;5009260;28;20301;-79
2022/07/17 07:52:12;;;;;;;3.47;1.90;;;;;;;;;;5008758;28;20215;-79
2022/07/17 07:54:38;;;;;;;2.43;1.73;;;;;;;;;;5010431;28;20191;-77
2022/07/17 07:57:04;;;;;;;3.00;1.70;;;;;;;;;;5010817;28;20692;-79
2022/07/17 07:59:34;;;;;;;4.40;1.90;;;;;;;;;;5009461;28;20736;-79
2022/07/17 08:02:01;;;;;;;3.93;1.70;;;;;;;;;;4977950;28;20758;-78
2022/07/17 08:04:27;;;;;;;2.97;1.60;;;;;;;;;;5012646;28;20414;-78
2022/07/17 08:06:53;;;;;;;6.83;2.07;;;;;;;;;;5013425;28;20191;-79
2022/07/17 08:09:20;;;;;;;4.33;1.63;;;;;;;;;;4992305;28;20187;-80
2022/07/17 08:11:46;;;;;;;3.40;1.70;;;;;;;;;;5012277;28;20257;-78
2022/07/17 08:14:12;;;;;;;2.97;2.37;;;;;;;;;;5012568;28;20215;-79
2022/07/17 08:16:38;;;;;;;2.90;2.20;;;;;;;;;;5012215;28;20229;-79
2022/07/17 08:19:04;;;;;;;2.00;1.50;;;;;;;;;;5012450;28;20250;-79
2022/07/17 08:21:30;;;;;;;2.10;1.60;;;;;;;;;;5010919;28;20196;-79
2022/07/17 08:23:56;;;;;;;3.37;1.43;;;;;;;;;;4992712;28;20654;-79
2022/07/17 08:26:23;;;;;;;4.10;1.50;;;;;;;;;;5010523;28;20200;-78
2022/07/17 08:28:49;;;;;;;2.23;1.40;;;;;;;;;;5010303;28;20198;-78
2022/07/17 08:31:15;;;;;;;3.50;1.40;;;;;;;;;;4976793;28;20202;-79
2022/07/17 08:33:42;;;;;;;2.30;1.40;;;;;;;;;;5009627;28;20735;-79
2022/07/17 08:36:08;;;;;;;3.00;1.40;;;;;;;;;;5009028;28;20179;-79
2022/07/17 08:38:34;;;;;;;3.53;1.50;;;;;;;;;;5008879;28;21422;-79
2022/07/17 08:41:00;;;;;;;4.40;1.40;;;;;;;;;;5015628;28;20195;-79
2022/07/17 08:43:27;;;;;;;5.07;1.40;;;;;;;;;;5010928;28;20225;-79
2022/07/17 08:45:53;;;;;;;3.53;1.50;;;;;;;;;;5014088;28;20187;-78
2022/07/17 08:48:19;;;;;;;2.10;1.40;;;;;;;;;;4996977;28;20191;-79
2022/07/17 08:50:46;;;;;;;2.53;1.43;;;;;;;;;;5014921;28;20219;-79
2022/07/17 08:53:13;;;;;;;2.53;1.30;;;;;;;;;;5012867;28;20225;-79
2022/07/17 08:55:39;;;;;;;2.17;1.40;;;;;;;;;;5013079;28;20318;-79
2022/07/17 08:58:05;;;;;;;3.00;1.53;;;;;;;;;;4996458;28;20183;-79
2022/07/17 09:00:31;;;;;;;4.10;1.40;;;;;;;;;;4993229;28;20191;-78
2022/07/17 09:03:06;;;;;;;3.30;1.33;;;;;;;;;;5012987;28;20682;-79
2022/07/17 09:05:33;;;;;;;4.40;1.50;;;;;;;;;;4995724;28;20186;-79
2022/07/17 09:08:00;;;;;;;5.30;1.60;;;;;;;;;;5011590;28;20249;-79
2022/07/17 09:10:34;;;;;;;2.40;1.47;;;;;;;;;;5012329;28;20333;-79
2022/07/17 09:13:00;;;;;;;4.50;1.60;;;;;;;;;;5014422;28;20659;-79
2022/07/17 09:15:27;;;;;;;2.07;1.60;;;;;;;;;;5014785;28;20182;-79
2022/07/17 09:17:55;;;;;;;2.70;1.40;;;;;;;;;;4995206;28;20194;-79
2022/07/17 09:20:22;;;;;;;1.90;1.40;;;;;;;;;;4995596;28;20179;-79
2022/07/17 09:22:58;;;;;;;2.60;1.50;;;;;;;;;;5014275;28;20565;-79
2022/07/17 09:25:35;;;;;;;1.80;1.50;;;;;;;;;;5016912;28;20619;-80
2022/07/17 09:28:02;;;;;;;2.40;1.43;;;;;;;;;;5015516;28;20194;-79
2022/07/17 09:30:28;;;;;;;2.67;1.27;;;;;;;;;;5013301;28;20764;-79
2022/07/17 09:32:55;;;;;;;2.00;1.37;;;;;;;;;;4998654;28;20741;-79
2022/07/17 09:35:23;;;;;;;3.77;1.80;;;;;;;;;;4996796;28;20682;-79
2022/07/17 09:37:51;;;;;;;1.80;1.30;;;;;;;;;;5013971;28;20651;-79
2022/07/17 09:43:03;;;;;;;2.93;1.47;;;;;;;;;;5013434;28;20270;-79
2022/07/17 09:45:29;;;;;;;3.70;1.50;;;;;;;;;;5012570;28;20187;-79
2022/07/17 09:47:55;;;;;;;3.33;1.50;;;;;;;;;;4995508;28;20533;-79
2022/07/17 09:50:21;;;;;;;2.63;1.50;;;;;;;;;;5012155;28;20193;-79
2022/07/17 09:52:49;;;;;;;1.63;1.30;;;;;;;;;;5012565;28;20207;-79
2022/07/17 09:55:17;;;;;;;2.23;1.53;;;;;;;;;;5013669;28;20194;-79
2022/07/17 09:57:44;;;;;;;2.30;1.40;;;;;;;;;;4996104;28;20183;-77
2022/07/17 10:00:12;;;;;;;1.87;1.37;;;;;;;;;;5008875;28;20241;-77
2022/07/17 10:02:44;;;;;;;2.03;1.50;;;;;;;;;;5008068;28;20634;-77
2022/07/17 10:05:11;;;;;;;3.20;2.20;;;;;;;;;;5007653;28;20230;-77
2022/07/17 10:07:40;;;;;;;2.40;1.40;;;;;;;;;;5004676;28;20598;-77
2022/07/17 10:10:08;;;;;;;2.00;1.47;;;;;;;;;;5010597;28;20242;-77
2022/07/17 10:12:34;;;;;;;4.37;1.50;;;;;;;;;;5008474;28;20241;-76
2022/07/17 10:15:01;;;;;;;2.47;1.40;;;;;;;;;;5009337;28;20757;-77
2022/07/17 10:17:27;;;;;;;3.47;1.50;;;;;;;;;;5006074;28;20193;-77
2022/07/17 10:19:55;;;;;;;2.37;1.33;;;;;;;;;;5010162;28;20210;-77
2022/07/17 10:22:22;;;;;;;2.03;1.53;;;;;;;;;;4992160;28;20219;-77
2022/07/17 10:24:56;;;;;;;2.40;1.47;;;;;;;;;;5009159;28;20773;-77
2022/07/17 10:27:26;;;;;;;2.63;1.50;;;;;;;;;;5013829;28;20249;-77
2022/07/17 10:30:06;;;;;;;5.73;1.50;;;;;;;;;;5006295;28;20655;-77
2022/07/17 10:32:32;;;;;;;4.37;1.40;;;;;;;;;;5007156;28;20267;-77
2022/07/17 10:35:00;;;;;;;3.33;1.50;;;;;;;;;;5007395;28;20179;-77
2022/07/17 10:37:46;;;;;;;2.00;1.40;;;;;;;;;;5009529;28;20262;-77
2022/07/17 10:40:17;;;;;;;3.33;1.50;;;;;;;;;;5008340;28;20672;-77
2022/07/17 10:42:43;;;;;;;2.17;1.50;;;;;;;;;;5007205;28;20210;-78
2022/07/17 10:45:14;;;;;;;2.40;1.60;;;;;;;;;;5013860;28;20511;-82
2022/07/17 10:48:07;;;;;;;3.43;1.33;;;;;;;;;;5010614;28;20188;-77
2022/07/17 10:50:45;;;;;;;1.83;1.50;;;;;;;;;;5010371;28;20290;-80
2022/07/17 10:53:31;;;;;;;2.03;1.50;;;;;;;;;;4990157;28;20213;-81
2022/07/17 10:55:59;;;;;;;1.63;1.40;;;;;;;;;;5014040;28;20834;-79
2022/07/17 10:58:26;;;;;;;2.30;1.60;;;;;;;;;;5011697;28;20187;-80
2022/07/17 11:00:57;;;;;;;1.93;1.30;;;;;;;;;;4992353;28;20202;-77
2022/07/17 11:03:23;;;;;;;2.60;1.40;;;;;;;;;;5008855;28;20197;-81
2022/07/17 11:05:49;;;;;;;1.67;1.40;;;;;;;;;;5013032;28;20198;-83
2022/07/17 11:08:16;;;;;;;3.03;1.50;;;;;;;;;;5010050;28;20671;-85
2022/07/17 11:10:42;;;;;;;1.60;1.40;;;;;;;;;;5011430;28;20190;-81
2022/07/17 11:13:12;;;;;;;1.87;1.57;;;;;;;;;;5010362;28;20694;-80
2022/07/17 11:15:39;;;;;;;2.17;1.57;;;;;;;;;;5014239;28;20187;-81
2022/07/17 11:18:10;;;;;;;2.00;1.40;;;;;;;;;;5008743;28;20487;-86
2022/07/17 11:20:46;;;;;;;3.40;1.40;;;;;;;;;;4972478;28;20233;-80
2022/07/17 11:23:12;;;;;;;2.53;1.40;;;;;;;;;;5008148;28;20691;-82
2022/07/17 11:25:39;;;;;;;2.57;1.40;;;;;;;;;;5011154;28;20266;-82
2022/07/17 11:28:05;;;;;;;1.73;1.40;;;;;;;;;;5010006;28;20697;-81
2022/07/17 11:30:31;;;;;;;1.70;1.50;;;;;;;;;;5010892;28;20190;-82
2022/07/17 11:32:58;;;;;;;2.40;1.60;;;;;;;;;;5015517;28;20207;-82
2022/07/17 11:35:25;;;;;;;1.80;1.50;;;;;;;;;;5020655;28;20182;-83
2022/07/17 11:37:51;;;;;;;3.60;1.50;;;;;;;;;;5007171;28;20187;-78
2022/07/17 11:40:17;;;;;;;3.90;1.60;;;;;;;;;;5010431;28;20270;-85
2022/07/17 11:42:44;;;;;;;2.40;1.50;;;;;;;;;;5012027;28;20202;-86
2022/07/17 11:45:10;;;;;;;1.47;1.37;;;;;;;;;;5019255;28;20242;-84
2022/07/17 11:47:37;;;;;;;2.40;1.57;;;;;;;;;;4995670;28;20590;-81
2022/07/17 11:50:07;;;;;;;3.33;1.40;;;;;;;;;;5007508;28;20599;-81
2022/07/17 11:53:00;;;;;;;2.20;1.40;;;;;;;;;;4992629;28;20593;-81
2022/07/17 11:55:36;;;;;;;2.00;1.50;;;;;;;;;;5007261;28;20207;-80
2022/07/17 11:58:02;;;;;;;3.93;1.40;;;;;;;;;;5011211;28;20218;-80
2022/07/17 12:00:28;;;;;;;2.87;1.60;;;;;;;;;;5008545;28;20175;-79
2022/07/17 12:03:00;;;;;;;3.27;1.63;;;;;;;;;;5008345;28;20562;-79
2022/07/17 12:05:27;;;;;;;3.50;1.50;;;;;;;;;;5009092;28;20202;-79
2022/07/17 12:07:53;;;;;;;2.67;1.50;;;;;;;;;;5010518;28;20726;-79
2022/07/17 12:10:21;;;;;;;2.20;1.40;;;;;;;;;;5004879;28;20748;-78
2022/07/17 12:13:06;;;;;;;2.13;1.20;;;;;;;;;;5007301;28;20290;-79
2022/07/17 12:15:46;;;;;;;2.60;1.50;;;;;;;;;;4993943;28;20561;-79
2022/07/17 12:18:27;;;;;;;3.17;1.60;;;;;;;;;;5011063;28;20188;-79
2022/07/17 12:20:54;;;;;;;2.43;1.40;;;;;;;;;;5009761;28;20285;-80
2022/07/17 12:23:40;;;;;;;1.97;1.30;;;;;;;;;;5012858;28;20644;-79
2022/07/17 12:26:10;;;;;;;2.90;1.40;;;;;;;;;;5012984;28;20228;-79
2022/07/17 12:28:37;;;;;;;2.90;1.40;;;;;;;;;;5010151;28;20190;-79
2022/07/17 12:31:03;;;;;;;1.50;1.20;;;;;;;;;;5011342;28;20221;-79
2022/07/17 12:33:29;;;;;;;1.97;1.50;;;;;;;;;;5009464;28;20215;-79
2022/07/17 12:35:55;;;;;;;1.63;1.37;;;;;;;;;;5013804;28;20183;-79
2022/07/17 12:38:22;;;;;;;2.47;1.50;;;;;;;;;;5011480;28;20554;-81
2022/07/17 12:40:48;;;;;;;2.13;1.43;;;;;;;;;;5017280;28;20204;-81
2022/07/17 12:43:14;;;;;;;1.40;1.30;;;;;;;;;;5011174;28;20180;-83
2022/07/17 12:45:41;;;;;;;1.87;1.40;;;;;;;;;;5009749;28;20215;-81
2022/07/17 12:48:07;;;;;;;1.87;1.40;;;;;;;;;;5015785;28;20235;-83
2022/07/17 12:50:33;;;;;;;3.30;1.50;;;;;;;;;;4996893;28;20308;-83
2022/07/17 12:52:59;;;;;;;2.80;1.50;;;;;;;;;;4994175;28;20213;-83
2022/07/17 12:55:26;;;;;;;1.40;1.30;;;;;;;;;;5014935;28;20186;-82
2022/07/17 12:57:52;;;;;;;2.57;1.47;;;;;;;;;;5000909;28;20186;-82
2022/07/17 13:00:18;;;;;;;5.73;1.37;;;;;;;;;;5010643;28;20196;-83
2022/07/17 13:02:44;;;;;;;1.93;1.30;;;;;;;;;;5010777;28;20285;-83
2022/07/17 13:05:11;;;;;;;1.60;1.40;;;;;;;;;;4991062;28;20531;-82
2022/07/17 13:07:38;;;;;;;2.17;1.40;;;;;;;;;;5013552;28;20195;-82
2022/07/17 13:10:05;;;;;;;2.67;1.30;;;;;;;;;;5010710;28;20266;-82
2022/07/17 13:12:31;;;;;;;2.20;1.33;;;;;;;;;;4993805;28;20228;-83
2022/07/17 13:14:57;;;;;;;1.90;1.47;;;;;;;;;;5015685;28;20671;-83
2022/07/17 13:17:23;;;;;;;2.60;1.43;;;;;;;;;;5013762;28;20181;-82
2022/07/17 13:19:50;;;;;;;1.90;1.37;;;;;;;;;;5013265;28;20177;-83
2022/07/17 13:22:16;;;;;;;2.33;1.40;;;;;;;;;;4998726;28;20257;-82
2022/07/17 13:24:42;;;;;;;1.50;1.40;;;;;;;;;;5012119;28;20184;-82
2022/07/17 13:27:09;;;;;;;3.43;1.40;;;;;;;;;;5002895;28;20189;-81
2022/07/17 13:29:36;;;;;;;1.53;1.40;;;;;;;;;;5003194;28;20215;-83
2022/07/17 13:32:03;;;;;;;1.77;1.30;;;;;;;;;;5012692;28;20285;-84
2022/07/17 13:34:30;;;;;;;1.60;1.20;;;;;;;;;;5019297;28;20180;-83
2022/07/17 13:36:57;;;;;;;1.77;1.33;;;;;;;;;;5015754;28;20178;-82
2022/07/17 13:39:23;;;;;;;2.30;1.20;;;;;;;;;;5016096;28;20769;-84
2022/07/17 13:41:49;;;;;;;2.37;1.30;;;;;;;;;;5011530;28;20276;-83
2022/07/17 13:44:15;;;;;;;2.90;1.27;;;;;;;;;;5011211;28;20194;-82
2022/07/17 13:46:42;;;;;;;1.63;1.30;;;;;;;;;;5009281;28;20208;-83
2022/07/17 13:49:08;;;;;;;1.30;1.10;;;;;;;;;;4964597;28;20209;-80
2022/07/17 13:51:35;;;;;;;3.45;1.30;;;;;;;;;;5016027;28;20283;-80
2022/07/17 13:54:01;;;;;;;1.65;1.30;;;;;;;;;;5013339;28;20227;-83
2022/07/17 13:56:28;;;;;;;1.40;1.30;;;;;;;;;;5016112;28;20186;-82
2022/07/17 13:58:54;;;;;;;2.50;1.30;;;;;;;;;;5018742;28;20194;-82
2022/07/17 14:01:20;;;;;;;2.25;1.30;;;;;;;;;;5013455;28;20210;-83
2022/07/17 14:03:47;;;;;;;2.17;1.30;;;;;;;;;;5014414;28;20217;-83
2022/07/17 14:06:13;;;;;;;1.90;1.42;;;;;;;;;;4998584;28;20185;-83
2022/07/17 14:08:40;;;;;;;1.40;1.30;;;;;;;;;;5017752;28;20954;-84
2022/07/17 14:11:06;;;;;;;1.73;1.40;;;;;;;;;;5014589;28;20212;-83
2022/07/17 14:13:32;;;;;;;2.08;1.40;;;;;;;;;;5012260;28;20212;-81
2022/07/17 14:15:58;;;;;;;1.27;1.15;;;;;;;;;;5015707;28;20206;-84
2022/07/17 14:18:25;;;;;;;1.85;1.25;;;;;;;;;;5008158;28;20186;-84
2022/07/17 14:20:51;;;;;;;3.35;1.40;;;;;;;;;;4998910;28;20278;-84
2022/07/17 14:23:17;;;;;;;2.72;1.33;;;;;;;;;;5014389;28;20561;-84
2022/07/17 14:25:44;;;;;;;2.90;1.30;;;;;;;;;;5021577;28;20243;-81
2022/07/17 14:28:10;;;;;;;1.92;1.33;;;;;;;;;;5016534;28;20268;-81
2022/07/17 14:30:37;;;;;;;1.42;1.20;;;;;;;;;;5012567;28;20218;-81
2022/07/17 14:33:03;;;;;;;3.33;1.25;;;;;;;;;;5013694;28;20212;-85
2022/07/17 14:35:31;;;;;;;3.63;1.30;;;;;;;;;;4995368;28;20289;-84
2022/07/17 14:37:57;;;;;;;1.30;1.20;;;;;;;;;;5012197;28;20209;-84
2022/07/17 14:40:23;;;;;;;2.25;1.10;;;;;;;;;;5014648;28;20176;-85
2022/07/17 14:42:50;;;;;;;2.33;1.60;;;;;;;;;;5013725;28;20234;-85
2022/07/17 14:45:16;;;;;;;2.67;1.52;;;;;;;;;;5007928;28;20199;-84